sensor_id;sensor_type;location;lat;lon;timestamp;pressure;altitude;pressure_sealevel;temperature;humidity
19576;BME280;41589;51.196;7.074;2023-01-25T00:01:35;100916.72;;;2.77;99.94
19576;BME280;41589;51.196;7.074;2023-01-25T00:06:36;100913.53;;;2.75;99.42
19576;BME280;41589;51.196;7.074;2023-01-25T00:11:42;100913.47;;;2.72;98.78
19576;BME280;41589;51.196;7.074;2023-01-25T00:16:44;100909.56;;;2.76;98.11
19576;BME280;41589;51.196;7.074;2023-01-25T00:21:47;100908.16;;;2.67;97.44
19576;BME280;41589;51.196;7.074;2023-01-25T00:26:48;100892.97;;;2.60;96.89
19576;BME280;41589;51.196;7.074;2023-01-25T00:32:35;100895.28;;;2.58;98.04
19576;BME280;41589;51.196;7.074;2023-01-25T00:42:35;100880.91;;;2.53;97.38
19576;BME280;41589;51.196;7.074;2023-01-25T00:47:38;100874.75;;;2.44;96.65
19576;BME280;41589;51.196;7.074;2023-01-25T00:52:42;100864.59;;;2.51;98.21
19576;BME280;41589;51.196;7.074;2023-01-25T00:57:45;100866.13;;;2.49;97.65
19576;BME280;41589;51.196;7.074;2023-01-25T01:02:58;100861.94;;;2.39;96.69
19576;BME280;41589;51.196;7.074;2023-01-25T01:07:59;100863.56;;;2.40;96.99
19576;BME280;41589;51.196;7.074;2023-01-25T01:13:00;100864.38;;;2.41;97.72
19576;BME280;41589;51.196;7.074;2023-01-25T01:18:03;100856.09;;;2.44;96.91
19576;BME280;41589;51.196;7.074;2023-01-25T01:23:07;100855.66;;;2.42;96.63
19576;BME280;41589;51.196;7.074;2023-01-25T01:28:12;100858.72;;;2.37;96.67
19576;BME280;41589;51.196;7.074;2023-01-25T01:33:13;100854.63;;;2.31;96.60
19576;BME280;41589;51.196;7.074;2023-01-25T01:38:23;100861.94;;;2.58;99.06
19576;BME280;41589;51.196;7.074;2023-01-25T01:43:24;100857.25;;;2.62;98.15
19576;BME280;41589;51.196;7.074;2023-01-25T01:53:42;100860.31;;;2.57;95.81
19576;BME280;41589;51.196;7.074;2023-01-25T01:58:47;100853.59;;;2.58;96.89
19576;BME280;41589;51.196;7.074;2023-01-25T02:03:51;100848.59;;;2.68;97.53
19576;BME280;41589;51.196;7.074;2023-01-25T02:08:57;100842.13;;;2.60;95.45
19576;BME280;41589;51.196;7.074;2023-01-25T02:14:01;100847.22;;;2.58;95.61
19576;BME280;41589;51.196;7.074;2023-01-25T02:19:03;100855.63;;;2.81;97.02
19576;BME280;41589;51.196;7.074;2023-01-25T02:24:29;100845.75;;;2.83;98.13
19576;BME280;41589;51.196;7.074;2023-01-25T02:29:34;100845.38;;;2.85;95.83
19576;BME280;41589;51.196;7.074;2023-01-25T02:34:43;100836.66;;;2.86;95.69
19576;BME280;41589;51.196;7.074;2023-01-25T02:39:44;100826.34;;;2.68;94.06
19576;BME280;41589;51.196;7.074;2023-01-25T02:44:46;100825.56;;;2.67;94.29
19576;BME280;41589;51.196;7.074;2023-01-25T02:49:52;100836.31;;;2.69;94.85
19576;BME280;41589;51.196;7.074;2023-01-25T02:54:59;100819.09;;;2.82;96.01
19576;BME280;41589;51.196;7.074;2023-01-25T03:00:06;100825.09;;;2.84;96.44
19576;BME280;41589;51.196;7.074;2023-01-25T03:05:13;100827.88;;;2.84;95.20
19576;BME280;41589;51.196;7.074;2023-01-25T03:10:16;100825.75;;;2.78;94.24
19576;BME280;41589;51.196;7.074;2023-01-25T03:15:17;100820.94;;;2.75;93.44
19576;BME280;41589;51.196;7.074;2023-01-25T03:20:22;100827.84;;;2.61;92.66
19576;BME280;41589;51.196;7.074;2023-01-25T03:25:23;100809.25;;;2.66;94.04
19576;BME280;41589;51.196;7.074;2023-01-25T03:30:43;100811.81;;;2.55;93.45
19576;BME280;41589;51.196;7.074;2023-01-25T03:35:52;100831.13;;;2.48;93.58
19576;BME280;41589;51.196;7.074;2023-01-25T03:40:53;100810.53;;;2.49;93.22
19576;BME280;41589;51.196;7.074;2023-01-25T03:45:57;100822.44;;;2.49;93.92
19576;BME280;41589;51.196;7.074;2023-01-25T03:50:58;100816.28;;;2.59;93.95
19576;BME280;41589;51.196;7.074;2023-01-25T03:56:00;100808.75;;;2.60;93.91
19576;BME280;41589;51.196;7.074;2023-01-25T04:01:03;100799.53;;;2.56;93.31
19576;BME280;41589;51.196;7.074;2023-01-25T04:06:05;100785.72;;;2.59;94.18
19576;BME280;41589;51.196;7.074;2023-01-25T04:11:08;100774.78;;;2.70;95.12
19576;BME280;41589;51.196;7.074;2023-01-25T04:16:09;100761.88;;;2.81;94.04
19576;BME280;41589;51.196;7.074;2023-01-25T04:21:33;100762.59;;;2.78;92.87
19576;BME280;41589;51.196;7.074;2023-01-25T04:26:34;100759.72;;;2.71;92.33
19576;BME280;41589;51.196;7.074;2023-01-25T04:31:36;100752.88;;;2.69;91.85
19576;BME280;41589;51.196;7.074;2023-01-25T04:36:37;100752.09;;;2.68;91.85
19576;BME280;41589;51.196;7.074;2023-01-25T04:41:38;100746.97;;;2.70;91.72
19576;BME280;41589;51.196;7.074;2023-01-25T04:46:39;100749.75;;;2.70;92.35
19576;BME280;41589;51.196;7.074;2023-01-25T04:51:40;100737.38;;;2.68;91.17
19576;BME280;41589;51.196;7.074;2023-01-25T04:56:41;100748.88;;;2.66;91.22
19576;BME280;41589;51.196;7.074;2023-01-25T05:01:41;100727.56;;;2.74;92.32
19576;BME280;41589;51.196;7.074;2023-01-25T05:06:42;100726.44;;;2.78;91.53
19576;BME280;41589;51.196;7.074;2023-01-25T05:11:43;100732.19;;;2.66;90.83
19576;BME280;41589;51.196;7.074;2023-01-25T05:17:07;100732.28;;;2.70;91.10
19576;BME280;41589;51.196;7.074;2023-01-25T05:22:15;100722.06;;;2.77;91.47
19576;BME280;41589;51.196;7.074;2023-01-25T05:27:21;100710.25;;;2.84;91.06
19576;BME280;41589;51.196;7.074;2023-01-25T05:32:27;100716.56;;;2.81;91.24
19576;BME280;41589;51.196;7.074;2023-01-25T05:37:28;100721.00;;;2.85;90.67
19576;BME280;41589;51.196;7.074;2023-01-25T05:42:34;100713.59;;;2.70;89.99
19576;BME280;41589;51.196;7.074;2023-01-25T05:47:35;100716.81;;;2.72;90.46
19576;BME280;41589;51.196;7.074;2023-01-25T05:52:36;100713.66;;;2.74;90.03
19576;BME280;41589;51.196;7.074;2023-01-25T05:57:37;100722.38;;;2.72;89.91
19576;BME280;41589;51.196;7.074;2023-01-25T06:02:37;100716.88;;;2.76;90.54
19576;BME280;41589;51.196;7.074;2023-01-25T06:07:38;100718.72;;;2.68;89.83
19576;BME280;41589;51.196;7.074;2023-01-25T06:12:38;100708.28;;;2.61;90.37
19576;BME280;41589;51.196;7.074;2023-01-25T06:17:40;100699.56;;;2.63;89.99
19576;BME280;41589;51.196;7.074;2023-01-25T06:23:03;100701.97;;;2.64;89.82
19576;BME280;41589;51.196;7.074;2023-01-25T06:28:04;100700.00;;;2.65;89.77
19576;BME280;41589;51.196;7.074;2023-01-25T06:33:04;100704.34;;;2.62;89.62
19576;BME280;41589;51.196;7.074;2023-01-25T06:38:05;100703.09;;;2.60;89.12
19576;BME280;41589;51.196;7.074;2023-01-25T06:43:07;100697.97;;;2.62;89.93
19576;BME280;41589;51.196;7.074;2023-01-25T06:48:08;100709.38;;;2.57;90.04
19576;BME280;41589;51.196;7.074;2023-01-25T06:53:08;100711.13;;;2.65;90.31
19576;BME280;41589;51.196;7.074;2023-01-25T06:58:08;100716.31;;;2.67;89.18
19576;BME280;41589;51.196;7.074;2023-01-25T07:03:09;100707.72;;;2.75;91.39
19576;BME280;41589;51.196;7.074;2023-01-25T07:08:09;100694.00;;;2.63;89.97
19576;BME280;41589;51.196;7.074;2023-01-25T07:13:10;100698.16;;;2.73;91.09
19576;BME280;41589;51.196;7.074;2023-01-25T07:18:18;100714.09;;;2.76;90.08
19576;BME280;41589;51.196;7.074;2023-01-25T07:23:19;100715.41;;;2.82;90.45
19576;BME280;41589;51.196;7.074;2023-01-25T07:28:19;100715.22;;;2.71;89.06
19576;BME280;41589;51.196;7.074;2023-01-25T07:33:49;100701.94;;;2.38;89.03
19576;BME280;41589;51.196;7.074;2023-01-25T07:38:53;100696.78;;;2.63;90.74
19576;BME280;41589;51.196;7.074;2023-01-25T07:44:02;100703.47;;;2.81;90.72
19576;BME280;41589;51.196;7.074;2023-01-25T07:49:08;100690.53;;;2.92;91.15
19576;BME280;41589;51.196;7.074;2023-01-25T07:54:12;100698.88;;;2.92;89.43
19576;BME280;41589;51.196;7.074;2023-01-25T07:59:16;100692.72;;;2.80;88.51
19576;BME280;41589;51.196;7.074;2023-01-25T08:04:16;100676.09;;;2.83;89.69
19576;BME280;41589;51.196;7.074;2023-01-25T08:09:20;100689.75;;;2.69;87.73
19576;BME280;41589;51.196;7.074;2023-01-25T08:14:21;100690.69;;;2.54;87.26
19576;BME280;41589;51.196;7.074;2023-01-25T08:19:24;100689.06;;;2.30;87.12
19576;BME280;41589;51.196;7.074;2023-01-25T08:24:25;100691.44;;;2.51;89.73
19576;BME280;41589;51.196;7.074;2023-01-25T08:29:25;100692.41;;;2.62;88.63
19576;BME280;41589;51.196;7.074;2023-01-25T08:34:27;100692.59;;;2.50;88.85
19576;BME280;41589;51.196;7.074;2023-01-25T08:39:30;100680.34;;;2.54;88.47
19576;BME280;41589;51.196;7.074;2023-01-25T08:44:30;100682.56;;;2.68;89.35
19576;BME280;41589;51.196;7.074;2023-01-25T08:49:31;100672.69;;;2.71;89.12
19576;BME280;41589;51.196;7.074;2023-01-25T08:54:33;100672.63;;;2.67;88.36
19576;BME280;41589;51.196;7.074;2023-01-25T08:59:36;100668.78;;;2.75;88.81
19576;BME280;41589;51.196;7.074;2023-01-25T09:04:37;100671.38;;;2.87;89.05
19576;BME280;41589;51.196;7.074;2023-01-25T09:09:37;100667.06;;;2.90;88.82
19576;BME280;41589;51.196;7.074;2023-01-25T09:14:38;100660.09;;;3.03;89.77
19576;BME280;41589;51.196;7.074;2023-01-25T09:19:44;100659.03;;;3.11;89.58
19576;BME280;41589;51.196;7.074;2023-01-25T09:24:46;100649.59;;;3.19;89.87
19576;BME280;41589;51.196;7.074;2023-01-25T09:29:57;100652.72;;;3.14;88.58
19576;BME280;41589;51.196;7.074;2023-01-25T09:34:58;100649.94;;;3.14;88.29
19576;BME280;41589;51.196;7.074;2023-01-25T09:40:02;100642.38;;;3.15;89.38
19576;BME280;41589;51.196;7.074;2023-01-25T09:45:34;100633.38;;;3.25;90.16
19576;BME280;41589;51.196;7.074;2023-01-25T09:56:20;100621.59;;;3.09;88.00
19576;BME280;41589;51.196;7.074;2023-01-25T10:01:46;100618.94;;;3.16;88.96
19576;BME280;41589;51.196;7.074;2023-01-25T10:06:55;100622.63;;;2.97;86.56
19576;BME280;41589;51.196;7.074;2023-01-25T10:12:13;100615.91;;;2.98;87.87
19576;BME280;41589;51.196;7.074;2023-01-25T10:22:47;100608.09;;;3.07;88.72
19576;BME280;41589;51.196;7.074;2023-01-25T10:33:28;100599.34;;;3.09;87.85
19576;BME280;41589;51.196;7.074;2023-01-25T10:38:40;100591.66;;;3.29;89.12
19576;BME280;41589;51.196;7.074;2023-01-25T10:43:46;100588.84;;;3.25;86.99
19576;BME280;41589;51.196;7.074;2023-01-25T10:48:50;100580.81;;;3.20;87.24
19576;BME280;41589;51.196;7.074;2023-01-25T10:53:58;100570.78;;;3.12;86.18
19576;BME280;41589;51.196;7.074;2023-01-25T10:59:14;100567.09;;;3.04;86.87
19576;BME280;41589;51.196;7.074;2023-01-25T11:04:40;100559.00;;;2.92;85.02
19576;BME280;41589;51.196;7.074;2023-01-25T11:09:51;100549.63;;;2.77;86.51
19576;BME280;41589;51.196;7.074;2023-01-25T11:14:51;100553.81;;;2.90;87.21
19576;BME280;41589;51.196;7.074;2023-01-25T11:20:14;100558.28;;;2.99;87.54
19576;BME280;41589;51.196;7.074;2023-01-25T11:25:25;100545.16;;;2.99;87.53
19576;BME280;41589;51.196;7.074;2023-01-25T11:30:26;100528.25;;;3.11;87.73
19576;BME280;41589;51.196;7.074;2023-01-25T11:35:32;100518.47;;;3.25;88.42
19576;BME280;41589;51.196;7.074;2023-01-25T11:46:18;100500.22;;;2.93;85.78
19576;BME280;41589;51.196;7.074;2023-01-25T11:51:35;100483.28;;;2.76;85.83
19576;BME280;41589;51.196;7.074;2023-01-25T11:56:49;100468.81;;;2.93;87.36
19576;BME280;41589;51.196;7.074;2023-01-25T12:07:49;100438.53;;;3.21;89.00
19576;BME280;41589;51.196;7.074;2023-01-25T12:24:36;100404.22;;;2.77;86.86
19576;BME280;41589;51.196;7.074;2023-01-25T12:30:20;100398.84;;;2.91;86.66
19576;BME280;41589;51.196;7.074;2023-01-25T12:35:32;100390.50;;;2.91;85.89
19576;BME280;41589;51.196;7.074;2023-01-25T12:45:44;100354.38;;;2.95;86.41
19576;BME280;41589;51.196;7.074;2023-01-25T12:50:56;100349.81;;;3.13;87.23
19576;BME280;41589;51.196;7.074;2023-01-25T12:55:58;100333.94;;;3.20;86.58
19576;BME280;41589;51.196;7.074;2023-01-25T13:11:54;100289.09;;;3.29;86.82
19576;BME280;41589;51.196;7.074;2023-01-25T13:22:15;100276.53;;;2.98;85.37
19576;BME280;41589;51.196;7.074;2023-01-25T13:27:45;100271.84;;;3.09;85.11
19576;BME280;41589;51.196;7.074;2023-01-25T13:38:20;100260.31;;;3.07;85.86
19576;BME280;41589;51.196;7.074;2023-01-25T13:43:23;100257.84;;;2.99;85.46
19576;BME280;41589;51.196;7.074;2023-01-25T13:48:30;100259.81;;;2.95;84.63
19576;BME280;41589;51.196;7.074;2023-01-25T13:53:33;100244.81;;;3.06;85.71
19576;BME280;41589;51.196;7.074;2023-01-25T13:58:43;100254.31;;;3.02;85.55
19576;BME280;41589;51.196;7.074;2023-01-25T14:03:55;100249.97;;;3.04;85.55
19576;BME280;41589;51.196;7.074;2023-01-25T14:09:02;100234.41;;;3.00;84.92
19576;BME280;41589;51.196;7.074;2023-01-25T14:14:27;100231.59;;;2.96;86.17
19576;BME280;41589;51.196;7.074;2023-01-25T14:19:28;100234.44;;;3.03;85.09
19576;BME280;41589;51.196;7.074;2023-01-25T14:24:29;100228.13;;;3.10;85.68
19576;BME280;41589;51.196;7.074;2023-01-25T14:29:34;100230.88;;;3.03;84.82
19576;BME280;41589;51.196;7.074;2023-01-25T14:34:34;100217.75;;;3.03;84.62
19576;BME280;41589;51.196;7.074;2023-01-25T14:39:35;100216.13;;;2.99;84.53
19576;BME280;41589;51.196;7.074;2023-01-25T14:44:38;100235.13;;;2.89;84.07
19576;BME280;41589;51.196;7.074;2023-01-25T14:49:40;100221.66;;;2.91;85.35
19576;BME280;41589;51.196;7.074;2023-01-25T14:54:52;100216.47;;;2.90;85.41
19576;BME280;41589;51.196;7.074;2023-01-25T14:59:55;100215.31;;;2.95;84.91
19576;BME280;41589;51.196;7.074;2023-01-25T15:05:02;100202.50;;;2.86;84.48
19576;BME280;41589;51.196;7.074;2023-01-25T15:15:27;100194.63;;;2.92;84.85
19576;BME280;41589;51.196;7.074;2023-01-25T15:20:39;100194.63;;;2.92;85.00
19576;BME280;41589;51.196;7.074;2023-01-25T15:31:03;100169.63;;;2.96;84.07
19576;BME280;41589;51.196;7.074;2023-01-25T15:36:04;100161.66;;;2.90;84.13
19576;BME280;41589;51.196;7.074;2023-01-25T15:41:04;100148.84;;;2.82;84.48
19576;BME280;41589;51.196;7.074;2023-01-25T15:46:12;100152.53;;;2.97;85.72
19576;BME280;41589;51.196;7.074;2023-01-25T15:51:15;100144.25;;;3.04;85.61
19576;BME280;41589;51.196;7.074;2023-01-25T15:56:20;100137.13;;;3.10;85.42
19576;BME280;41589;51.196;7.074;2023-01-25T16:01:22;100147.88;;;3.12;85.47
19576;BME280;41589;51.196;7.074;2023-01-25T16:06:47;100122.03;;;3.11;85.54
19576;BME280;41589;51.196;7.074;2023-01-25T16:11:51;100129.16;;;3.05;84.80
19576;BME280;41589;51.196;7.074;2023-01-25T16:16:52;100125.59;;;3.08;84.96
19576;BME280;41589;51.196;7.074;2023-01-25T16:21:52;100131.78;;;2.84;83.24
19576;BME280;41589;51.196;7.074;2023-01-25T16:26:54;100134.34;;;2.55;82.35
19576;BME280;41589;51.196;7.074;2023-01-25T16:31:55;100129.09;;;2.47;83.39
19576;BME280;41589;51.196;7.074;2023-01-25T16:36:56;100123.09;;;2.41;83.61
19576;BME280;41589;51.196;7.074;2023-01-25T16:41:59;100132.66;;;2.44;84.13
19576;BME280;41589;51.196;7.074;2023-01-25T16:47:00;100125.50;;;2.43;83.69
19576;BME280;41589;51.196;7.074;2023-01-25T16:52:01;100113.69;;;2.56;84.86
19576;BME280;41589;51.196;7.074;2023-01-25T16:57:02;100119.69;;;2.62;83.49
19576;BME280;41589;51.196;7.074;2023-01-25T17:02:10;100099.19;;;2.33;83.66
19576;BME280;41589;51.196;7.074;2023-01-25T17:07:14;100107.53;;;2.33;83.93
19576;BME280;41589;51.196;7.074;2023-01-25T17:12:15;100104.69;;;2.26;84.84
19576;BME280;41589;51.196;7.074;2023-01-25T17:17:15;100097.28;;;2.41;84.68
19576;BME280;41589;51.196;7.074;2023-01-25T17:22:15;100100.94;;;2.48;84.94
19576;BME280;41589;51.196;7.074;2023-01-25T17:27:16;100094.16;;;2.46;84.61
19576;BME280;41589;51.196;7.074;2023-01-25T17:32:16;100084.63;;;2.47;84.44
19576;BME280;41589;51.196;7.074;2023-01-25T17:37:17;100083.13;;;2.56;84.88
19576;BME280;41589;51.196;7.074;2023-01-25T17:42:17;100084.16;;;2.38;84.04
19576;BME280;41589;51.196;7.074;2023-01-25T17:47:18;100088.91;;;2.37;83.79
19576;BME280;41589;51.196;7.074;2023-01-25T17:52:18;100079.34;;;2.31;84.25
19576;BME280;41589;51.196;7.074;2023-01-25T17:57:18;100074.59;;;2.31;84.35
19576;BME280;41589;51.196;7.074;2023-01-25T18:02:23;100084.81;;;2.20;83.20
19576;BME280;41589;51.196;7.074;2023-01-25T18:07:23;100075.53;;;2.05;83.67
19576;BME280;41589;51.196;7.074;2023-01-25T18:12:24;100085.19;;;2.19;84.82
19576;BME280;41589;51.196;7.074;2023-01-25T18:17:24;100075.00;;;2.37;85.68
19576;BME280;41589;51.196;7.074;2023-01-25T18:22:25;100077.53;;;2.49;84.56
19576;BME280;41589;51.196;7.074;2023-01-25T18:27:26;100063.06;;;2.29;84.05
19576;BME280;41589;51.196;7.074;2023-01-25T18:32:28;100057.50;;;2.29;84.76
19576;BME280;41589;51.196;7.074;2023-01-25T18:37:29;100066.09;;;2.14;83.12
19576;BME280;41589;51.196;7.074;2023-01-25T18:42:34;100048.69;;;1.76;82.37
19576;BME280;41589;51.196;7.074;2023-01-25T18:47:35;100042.06;;;1.88;84.18
19576;BME280;41589;51.196;7.074;2023-01-25T18:52:35;100037.63;;;1.83;83.71
19576;BME280;41589;51.196;7.074;2023-01-25T18:57:36;100028.50;;;1.83;83.30
19576;BME280;41589;51.196;7.074;2023-01-25T19:02:36;100019.03;;;1.87;83.28
19576;BME280;41589;51.196;7.074;2023-01-25T19:07:37;100028.91;;;1.85;84.16
19576;BME280;41589;51.196;7.074;2023-01-25T19:12:37;100016.88;;;2.11;84.79
19576;BME280;41589;51.196;7.074;2023-01-25T19:17:37;100014.09;;;2.11;83.29
19576;BME280;41589;51.196;7.074;2023-01-25T19:22:38;100005.59;;;1.93;82.53
19576;BME280;41589;51.196;7.074;2023-01-25T19:27:39;99997.25;;;1.93;83.22
19576;BME280;41589;51.196;7.074;2023-01-25T19:32:40;99972.41;;;2.07;84.11
19576;BME280;41589;51.196;7.074;2023-01-25T19:37:40;99965.69;;;2.12;83.72
19576;BME280;41589;51.196;7.074;2023-01-25T19:42:40;99953.75;;;2.08;82.99
19576;BME280;41589;51.196;7.074;2023-01-25T19:47:41;99941.41;;;2.05;82.76
19576;BME280;41589;51.196;7.074;2023-01-25T19:52:42;99927.09;;;1.99;82.38
19576;BME280;41589;51.196;7.074;2023-01-25T19:57:44;99916.00;;;2.03;82.08
19576;BME280;41589;51.196;7.074;2023-01-25T20:02:45;99916.47;;;2.09;82.71
19576;BME280;41589;51.196;7.074;2023-01-25T20:07:45;99913.28;;;2.10;81.84
19576;BME280;41589;51.196;7.074;2023-01-25T20:12:46;99907.69;;;2.03;81.87
19576;BME280;41589;51.196;7.074;2023-01-25T20:17:46;99913.63;;;1.98;81.96
19576;BME280;41589;51.196;7.074;2023-01-25T20:22:46;99918.31;;;1.94;81.74
19576;BME280;41589;51.196;7.074;2023-01-25T20:27:48;99917.44;;;1.83;81.98
19576;BME280;41589;51.196;7.074;2023-01-25T20:32:48;99907.84;;;1.73;82.11
19576;BME280;41589;51.196;7.074;2023-01-25T20:37:49;99899.13;;;1.71;81.55
19576;BME280;41589;51.196;7.074;2023-01-25T20:42:49;99894.75;;;1.73;82.42
19576;BME280;41589;51.196;7.074;2023-01-25T20:47:50;99902.34;;;1.76;81.98
19576;BME280;41589;51.196;7.074;2023-01-25T20:52:50;99907.91;;;1.76;81.54
19576;BME280;41589;51.196;7.074;2023-01-25T20:57:52;99912.22;;;1.74;81.39
19576;BME280;41589;51.196;7.074;2023-01-25T21:02:52;99899.19;;;1.78;82.45
19576;BME280;41589;51.196;7.074;2023-01-25T21:07:53;99900.19;;;1.56;80.79
19576;BME280;41589;51.196;7.074;2023-01-25T21:12:53;99874.06;;;1.60;81.59
19576;BME280;41589;51.196;7.074;2023-01-25T21:17:54;99883.97;;;1.61;80.80
19576;BME280;41589;51.196;7.074;2023-01-25T21:22:54;99870.47;;;1.56;81.47
19576;BME280;41589;51.196;7.074;2023-01-25T21:27:54;99861.75;;;1.58;81.66
19576;BME280;41589;51.196;7.074;2023-01-25T21:32:55;99846.66;;;1.55;81.00
19576;BME280;41589;51.196;7.074;2023-01-25T21:37:55;99846.22;;;1.53;81.26
19576;BME280;41589;51.196;7.074;2023-01-25T21:42:55;99864.59;;;1.65;82.24
19576;BME280;41589;51.196;7.074;2023-01-25T21:47:57;99866.28;;;1.80;82.41
19576;BME280;41589;51.196;7.074;2023-01-25T21:52:58;99864.31;;;1.84;81.41
19576;BME280;41589;51.196;7.074;2023-01-25T21:57:58;99863.47;;;1.76;81.31
19576;BME280;41589;51.196;7.074;2023-01-25T22:02:59;99877.78;;;1.82;80.95
19576;BME280;41589;51.196;7.074;2023-01-25T22:07:59;99874.59;;;1.76;80.99
19576;BME280;41589;51.196;7.074;2023-01-25T22:13:00;99867.28;;;1.58;80.05
19576;BME280;41589;51.196;7.074;2023-01-25T22:18:00;99869.91;;;1.40;79.57
19576;BME280;41589;51.196;7.074;2023-01-25T22:23:00;99884.19;;;1.42;80.47
19576;BME280;41589;51.196;7.074;2023-01-25T22:28:02;99874.34;;;1.48;81.51
19576;BME280;41589;51.196;7.074;2023-01-25T22:33:03;99865.69;;;1.57;80.98
19576;BME280;41589;51.196;7.074;2023-01-25T22:38:03;99870.78;;;1.47;80.21
19576;BME280;41589;51.196;7.074;2023-01-25T22:43:03;99876.53;;;1.28;80.24
19576;BME280;41589;51.196;7.074;2023-01-25T22:48:04;99862.69;;;1.28;80.07
19576;BME280;41589;51.196;7.074;2023-01-25T22:53:04;99859.53;;;1.33;81.26
19576;BME280;41589;51.196;7.074;2023-01-25T22:58:05;99859.31;;;1.53;82.07
19576;BME280;41589;51.196;7.074;2023-01-25T23:03:05;99842.72;;;1.56;81.07
19576;BME280;41589;51.196;7.074;2023-01-25T23:08:05;99853.63;;;1.35;79.53
19576;BME280;41589;51.196;7.074;2023-01-25T23:13:06;99831.94;;;1.51;81.34
19576;BME280;41589;51.196;7.074;2023-01-25T23:18:08;99835.00;;;1.35;80.66
19576;BME280;41589;51.196;7.074;2023-01-25T23:23:28;99846.50;;;1.34;80.39
19576;BME280;41589;51.196;7.074;2023-01-25T23:28:29;99823.06;;;0.87;78.87
19576;BME280;41589;51.196;7.074;2023-01-25T23:33:29;99823.41;;;0.82;80.91
19576;BME280;41589;51.196;7.074;2023-01-25T23:38:29;99818.91;;;1.11;81.36
19576;BME280;41589;51.196;7.074;2023-01-25T23:43:30;99817.88;;;1.26;80.16
19576;BME280;41589;51.196;7.074;2023-01-25T23:48:31;99806.41;;;1.31;81.25
19576;BME280;41589;51.196;7.074;2023-01-25T23:53:31;99802.94;;;1.41;79.88
19576;BME280;41589;51.196;7.074;2023-01-25T23:58:33;99802.03;;;1.23;79.14
